Time;durP1;ratioP1;P1;durP2;ratioP2;P2;SDS_P1;SDS_P2;PMS_P1;PMS_P2;Temp;Humidity;BMP_temperature;BMP_pressure;BME280_temperature;BME280_humidity;BME280_pressure;Samples;Min_cycle;Max_cycle;Signal;HPM_P1;HPM_P2
2022/12/04 00:01:16;;;;;;;13.80;8.87;;;4.60;99.90;;;;;;5017916;28;20181;-76
2022/12/04 00:03:44;;;;;;;14.00;8.90;;;4.60;99.90;;;;;;5029827;28;20205;-76
2022/12/04 00:06:12;;;;;;;15.50;9.37;;;4.60;99.90;;;;;;5018324;28;20182;-76
2022/12/04 00:08:39;;;;;;;12.63;8.73;;;4.60;99.90;;;;;;5018137;28;20186;-76
2022/12/04 00:11:09;;;;;;;14.13;8.60;;;4.70;99.90;;;;;;5017985;28;20205;-75
2022/12/04 00:13:38;;;;;;;12.73;8.60;;;4.80;99.90;;;;;;5018343;28;20174;-75
2022/12/04 00:16:09;;;;;;;11.63;8.10;;;4.70;99.90;;;;;;5017660;28;20178;-76
2022/12/04 00:18:35;;;;;;;14.33;8.90;;;4.70;99.90;;;;;;5018250;28;20177;-76
2022/12/04 00:21:10;;;;;;;11.60;7.70;;;4.60;99.90;;;;;;5017513;28;20263;-76
2022/12/04 00:23:37;;;;;;;12.90;8.07;;;4.60;99.90;;;;;;5033962;28;20272;-75
2022/12/04 00:26:24;;;;;;;13.23;7.90;;;4.60;99.90;;;;;;5021107;28;20189;-75
2022/12/04 00:28:51;;;;;;;11.00;7.83;;;4.70;99.90;;;;;;5018237;28;20185;-75
2022/12/04 00:31:21;;;;;;;11.57;7.50;;;4.60;99.90;;;;;;5017708;28;20209;-76
2022/12/04 00:33:47;;;;;;;12.23;7.70;;;4.60;99.90;;;;;;5017788;28;20274;-76
2022/12/04 00:36:17;;;;;;;12.00;7.30;;;4.60;99.90;;;;;;5017743;28;20282;-75
2022/12/04 00:38:47;;;;;;;10.20;6.90;;;4.70;99.90;;;;;;5034654;28;20205;-76
2022/12/04 00:41:16;;;;;;;11.07;6.90;;;4.70;99.90;;;;;;5019307;28;20250;-75
2022/12/04 00:43:42;;;;;;;10.47;6.67;;;4.70;99.90;;;;;;5011208;28;20202;-75
2022/12/04 00:46:16;;;;;;;10.17;6.47;;;4.60;99.90;;;;;;5033546;28;20253;-76
2022/12/04 00:48:44;;;;;;;11.67;7.90;;;4.70;99.90;;;;;;5018923;28;20223;-72
2022/12/04 00:51:19;;;;;;;10.83;7.03;;;4.70;99.90;;;;;;5034891;28;20263;-72
2022/12/04 00:53:48;;;;;;;10.70;7.30;;;4.60;99.90;;;;;;5005290;28;20178;-73
2022/12/04 00:56:20;;;;;;;10.63;7.50;;;4.60;99.90;;;;;;5016791;28;20170;-72
2022/12/04 00:58:46;;;;;;;12.60;7.93;;;4.60;99.90;;;;;;5016658;28;20186;-72
2022/12/04 01:01:15;;;;;;;12.97;8.17;;;4.70;99.90;;;;;;5021217;28;20192;-72
2022/12/04 01:03:42;;;;;;;11.87;7.27;;;4.60;99.90;;;;;;5007309;28;20324;-72
2022/12/04 01:06:45;;;;;;;12.13;7.50;;;4.60;99.90;;;;;;5020185;28;20237;-73
2022/12/04 01:09:10;;;;;;;12.00;7.90;;;4.60;99.90;;;;;;4999477;28;20284;-72
2022/12/04 01:11:37;;;;;;;12.03;7.97;;;4.60;99.90;;;;;;5015865;28;20286;-72
2022/12/04 01:14:06;;;;;;;12.57;8.37;;;4.70;99.90;;;;;;5017185;28;20175;-72
2022/12/04 01:16:35;;;;;;;11.77;7.93;;;4.60;99.90;;;;;;5021350;28;20190;-72
2022/12/04 01:19:04;;;;;;;11.30;7.60;;;4.60;99.90;;;;;;5025927;28;20204;-72
2022/12/04 01:21:29;;;;;;;9.93;6.97;;;4.60;99.90;;;;;;5020969;28;20174;-72
2022/12/04 01:23:58;;;;;;;10.50;6.80;;;4.50;99.90;;;;;;5020715;28;20178;-72
2022/12/04 01:26:27;;;;;;;11.80;7.60;;;4.60;99.90;;;;;;5025995;28;20193;-73
2022/12/04 01:28:53;;;;;;;9.93;6.80;;;4.60;99.90;;;;;;5020783;28;20244;-73
2022/12/04 01:31:22;;;;;;;12.20;7.73;;;4.60;99.90;;;;;;5037396;28;20210;-74
2022/12/04 01:33:49;;;;;;;11.37;7.40;;;4.60;99.90;;;;;;5015583;28;20443;-73
2022/12/04 01:36:20;;;;;;;8.63;6.17;;;4.60;99.90;;;;;;5020433;28;20217;-73
2022/12/04 01:38:45;;;;;;;10.33;6.30;;;4.70;99.90;;;;;;5011598;28;20190;-72
2022/12/04 01:41:15;;;;;;;9.33;6.43;;;4.60;99.90;;;;;;5017031;28;20317;-73
2022/12/04 01:43:42;;;;;;;10.50;6.53;;;4.60;99.90;;;;;;5021267;28;20185;-73
2022/12/04 01:46:08;;;;;;;10.43;7.00;;;4.60;99.90;;;;;;5029059;28;20198;-72
2022/12/04 01:48:40;;;;;;;10.50;6.90;;;4.60;99.90;;;;;;5020649;28;20205;-73
2022/12/04 01:51:25;;;;;;;10.37;6.80;;;4.60;99.90;;;;;;5005194;28;20193;-72
2022/12/04 01:54:04;;;;;;;9.57;6.87;;;4.60;99.90;;;;;;5020040;28;20216;-73
2022/12/04 01:56:45;;;;;;;11.03;6.47;;;4.60;99.90;;;;;;5020632;28;20185;-73
2022/12/04 01:59:14;;;;;;;10.40;6.53;;;4.50;99.90;;;;;;5031299;28;20235;-73
2022/12/04 02:01:48;;;;;;;9.77;6.43;;;4.50;99.90;;;;;;5020317;28;20182;-73
2022/12/04 02:04:14;;;;;;;7.60;5.30;;;4.50;99.90;;;;;;5021857;28;20186;-73
2022/12/04 02:06:39;;;;;;;10.20;7.10;;;4.60;99.90;;;;;;5032915;28;20245;-72
2022/12/04 02:09:06;;;;;;;9.40;6.13;;;4.50;99.90;;;;;;5023282;28;20265;-72
2022/12/04 02:11:37;;;;;;;10.10;6.50;;;4.50;99.90;;;;;;5019141;28;20194;-73
2022/12/04 02:14:36;;;;;;;11.23;6.83;;;4.50;99.90;;;;;;5031238;28;20174;-73
2022/12/04 02:17:10;;;;;;;10.13;7.23;;;4.40;99.90;;;;;;5007416;28;20216;-73
2022/12/04 02:19:38;;;;;;;10.23;6.80;;;4.40;99.90;;;;;;5020590;28;20300;-73
2022/12/04 02:22:10;;;;;;;9.30;6.57;;;4.40;99.90;;;;;;5012832;28;20174;-72
2022/12/04 02:25:16;;;;;;;11.23;7.30;;;4.50;99.90;;;;;;5020357;28;20208;-73
2022/12/04 02:28:12;;;;;;;10.93;6.40;;;4.40;99.90;;;;;;5001006;28;20221;-72
2022/12/04 02:30:44;;;;;;;7.47;5.50;;;4.30;99.90;;;;;;5012567;28;20202;-72
2022/12/04 02:33:16;;;;;;;9.13;6.30;;;4.30;99.90;;;;;;5008443;28;20173;-73
2022/12/04 02:36:07;;;;;;;8.47;6.17;;;4.30;99.90;;;;;;5019881;28;20181;-73
2022/12/04 02:38:51;;;;;;;10.03;6.30;;;4.30;99.90;;;;;;5012491;28;20190;-71
2022/12/04 02:41:41;;;;;;;8.00;5.50;;;4.20;99.90;;;;;;5019711;28;20186;-71
2022/12/04 02:44:16;;;;;;;6.83;5.10;;;4.30;99.90;;;;;;5019687;28;20193;-71
2022/12/04 02:46:51;;;;;;;7.70;5.53;;;4.20;99.90;;;;;;5035362;28;20231;-71
2022/12/04 02:49:23;;;;;;;8.00;5.50;;;4.20;99.90;;;;;;5018603;28;20177;-70
2022/12/04 02:51:51;;;;;;;8.43;5.33;;;4.20;99.90;;;;;;5014353;28;20197;-71
2022/12/04 02:54:31;;;;;;;6.40;4.67;;;4.20;99.90;;;;;;5014098;28;20269;-71
2022/12/04 02:56:58;;;;;;;6.90;4.60;;;4.20;99.90;;;;;;5017763;28;20173;-70
2022/12/04 02:59:55;;;;;;;6.70;4.70;;;4.20;99.90;;;;;;5019574;28;20173;-71
2022/12/04 03:02:56;;;;;;;7.40;5.23;;;4.20;99.90;;;;;;5002498;28;20190;-70
2022/12/04 03:05:28;;;;;;;10.40;6.30;;;4.20;99.90;;;;;;5021946;28;20205;-73
2022/12/04 03:08:04;;;;;;;9.03;5.83;;;4.20;99.90;;;;;;5020592;28;20177;-72
2022/12/04 03:10:40;;;;;;;7.90;5.20;;;4.20;99.90;;;;;;5018513;28;20202;-73
2022/12/04 03:13:12;;;;;;;6.90;5.17;;;4.20;99.90;;;;;;5010164;28;20174;-71
2022/12/04 03:15:55;;;;;;;8.00;5.43;;;4.20;99.90;;;;;;5025635;28;20174;-73
2022/12/04 03:18:27;;;;;;;6.47;4.93;;;4.10;99.90;;;;;;5022486;28;20174;-71
2022/12/04 03:21:03;;;;;;;8.00;5.33;;;4.10;99.90;;;;;;5013583;28;20182;-71
2022/12/04 03:23:40;;;;;;;7.40;5.20;;;4.10;99.90;;;;;;5019268;28;20268;-72
2022/12/04 03:26:30;;;;;;;7.93;5.43;;;4.10;99.90;;;;;;5018983;28;20186;-72
2022/12/04 03:28:56;;;;;;;8.20;5.67;;;4.10;99.90;;;;;;5019254;28;20279;-72
2022/12/04 03:31:30;;;;;;;7.47;5.63;;;4.00;99.90;;;;;;5019052;28;20250;-71
2022/12/04 03:34:00;;;;;;;7.47;5.33;;;4.00;99.90;;;;;;5035607;28;20276;-72
2022/12/04 03:37:02;;;;;;;8.20;5.40;;;4.00;99.90;;;;;;5027372;28;20178;-71
2022/12/04 03:40:00;;;;;;;7.30;5.23;;;4.00;99.90;;;;;;4969652;28;20277;-71
2022/12/04 03:42:52;;;;;;;7.93;5.33;;;4.00;99.90;;;;;;5005717;28;20186;-71
2022/12/04 03:45:23;;;;;;;7.40;4.97;;;4.10;99.90;;;;;;5003000;28;20186;-72
2022/12/04 03:48:07;;;;;;;6.23;4.40;;;4.00;99.90;;;;;;5008516;28;20182;-71
2022/12/04 03:50:47;;;;;;;6.83;5.20;;;3.90;99.90;;;;;;5005893;28;20265;-72
2022/12/04 03:53:21;;;;;;;6.80;4.93;;;3.90;99.90;;;;;;5017634;28;20250;-72
2022/12/04 03:56:09;;;;;;;8.17;5.27;;;4.00;99.90;;;;;;5024747;28;20181;-72
2022/12/04 03:58:40;;;;;;;6.50;4.40;;;3.90;99.90;;;;;;5018806;28;20175;-71
2022/12/04 04:01:10;;;;;;;7.17;5.13;;;3.90;99.90;;;;;;5017759;28;20177;-72
2022/12/04 04:03:42;;;;;;;7.47;5.33;;;3.90;99.90;;;;;;5019659;28;20181;-70
2022/12/04 04:06:15;;;;;;;7.90;5.60;;;3.90;99.90;;;;;;5028340;28;20181;-72
2022/12/04 04:08:44;;;;;;;7.20;5.00;;;3.90;99.90;;;;;;5028309;28;20185;-71
2022/12/04 04:11:19;;;;;;;7.47;5.17;;;3.90;99.90;;;;;;5021946;28;20225;-72
2022/12/04 04:25:30;;;;;;;6.53;4.80;;;3.90;99.90;;;;;;5034525;28;20207;-72
2022/12/04 04:27:57;;;;;;;7.37;5.10;;;3.90;99.90;;;;;;5020741;28;20194;-72
2022/12/04 04:30:23;;;;;;;6.40;4.90;;;3.80;99.90;;;;;;5034702;28;20240;-72
2022/12/04 04:33:17;;;;;;;6.43;4.23;;;3.80;99.90;;;;;;5014711;28;20178;-74
2022/12/04 04:35:55;;;;;;;6.40;4.33;;;3.80;99.90;;;;;;5005158;28;20181;-71
2022/12/04 04:38:33;;;;;;;6.80;4.83;;;3.80;99.90;;;;;;5030298;28;20181;-71
2022/12/04 04:41:31;;;;;;;6.40;4.57;;;3.80;99.90;;;;;;5019297;28;20190;-71
2022/12/04 04:44:21;;;;;;;5.93;4.23;;;3.80;99.90;;;;;;5006780;28;20189;-71
2022/12/04 04:46:54;;;;;;;7.13;4.90;;;3.90;99.90;;;;;;5017015;28;20248;-71
2022/12/04 04:49:24;;;;;;;6.90;4.80;;;3.80;99.90;;;;;;5019812;28;20193;-71
2022/12/04 04:51:51;;;;;;;6.03;4.33;;;3.80;99.90;;;;;;5020810;28;20201;-70
2022/12/04 04:54:20;;;;;;;6.67;4.50;;;3.80;99.90;;;;;;5018276;28;20178;-70
2022/12/04 04:56:46;;;;;;;6.37;4.73;;;3.80;99.90;;;;;;5037008;28;20542;-71
2022/12/04 04:59:15;;;;;;;7.47;4.73;;;3.80;99.90;;;;;;5020894;28;20182;-71
2022/12/04 05:01:43;;;;;;;7.30;5.07;;;3.80;99.90;;;;;;5031262;28;20190;-71
2022/12/04 05:04:09;;;;;;;7.10;4.90;;;3.80;99.90;;;;;;5035006;28;20186;-71
2022/12/04 05:06:37;;;;;;;6.47;4.50;;;3.80;99.90;;;;;;5017252;28;20179;-71
2022/12/04 05:09:03;;;;;;;6.83;4.73;;;3.80;99.90;;;;;;5015532;28;20202;-71
2022/12/04 05:11:29;;;;;;;6.93;4.90;;;3.80;99.90;;;;;;5014085;28;20211;-71
2022/12/04 05:13:57;;;;;;;6.60;4.73;;;3.80;99.90;;;;;;5019989;28;20185;-72
2022/12/04 05:16:23;;;;;;;7.03;4.93;;;3.80;99.90;;;;;;5017820;28;20178;-70
2022/12/04 05:21:37;;;;;;;6.50;4.43;;;3.80;99.90;;;;;;5003141;28;20175;-71
2022/12/04 05:24:03;;;;;;;6.03;4.43;;;3.80;99.90;;;;;;5036912;28;20213;-72
2022/12/04 05:26:31;;;;;;;8.23;4.90;;;3.80;99.90;;;;;;5037072;28;20210;-71
2022/12/04 05:28:56;;;;;;;6.40;4.60;;;3.80;99.90;;;;;;5018470;28;20183;-71
2022/12/04 05:31:22;;;;;;;6.03;4.00;;;3.80;99.90;;;;;;5035726;28;20210;-72
2022/12/04 05:33:47;;;;;;;7.13;4.67;;;3.90;99.90;;;;;;5024522;28;20206;-72
2022/12/04 05:36:13;;;;;;;6.47;4.40;;;3.80;99.90;;;;;;5012401;28;20182;-71
2022/12/04 05:38:41;;;;;;;5.67;4.57;;;3.90;99.90;;;;;;5020210;28;20166;-72
2022/12/04 05:41:09;;;;;;;5.50;4.33;;;4.00;99.90;;;;;;5018868;28;20219;-72
2022/12/04 05:43:35;;;;;;;6.77;5.00;;;3.90;99.90;;;;;;5019074;28;20232;-71
2022/12/04 05:46:02;;;;;;;7.53;5.40;;;3.90;99.90;;;;;;4996151;28;1189866;-72
2022/12/04 05:48:33;;;;;;;6.73;4.70;;;3.90;99.90;;;;;;5020859;28;20192;-73
2022/12/04 05:51:01;;;;;;;6.90;4.80;;;3.90;99.90;;;;;;5034187;28;20217;-72
2022/12/04 05:53:27;;;;;;;6.43;4.20;;;3.90;99.90;;;;;;5032072;28;20182;-71
2022/12/04 05:56:01;;;;;;;6.60;4.53;;;3.90;99.90;;;;;;5020846;28;20185;-72
2022/12/04 05:58:27;;;;;;;6.17;4.40;;;3.90;99.90;;;;;;5020265;28;20238;-72
2022/12/04 06:00:56;;;;;;;6.40;4.50;;;3.90;99.90;;;;;;5031726;28;20186;-72
2022/12/04 06:03:21;;;;;;;8.03;5.30;;;3.90;99.90;;;;;;5016836;28;20274;-72
2022/12/04 06:05:47;;;;;;;6.93;5.07;;;3.80;99.90;;;;;;5013255;28;20277;-72
2022/12/04 06:08:15;;;;;;;6.73;4.97;;;3.80;99.90;;;;;;5036746;28;20189;-71
2022/12/04 06:10:41;;;;;;;7.00;4.60;;;3.80;99.90;;;;;;5020570;28;20247;-72
2022/12/04 06:13:07;;;;;;;8.43;5.50;;;3.70;99.90;;;;;;5020585;28;20178;-72
2022/12/04 06:15:37;;;;;;;7.57;5.43;;;3.70;99.90;;;;;;5020499;28;20268;-71
2022/12/04 06:18:03;;;;;;;7.73;5.40;;;3.70;99.90;;;;;;5020535;28;20178;-72
2022/12/04 06:20:28;;;;;;;7.60;5.33;;;3.70;99.90;;;;;;5023306;28;20340;-72
2022/12/04 06:22:54;;;;;;;8.47;5.63;;;3.60;99.90;;;;;;5007480;28;20205;-72
2022/12/04 06:25:19;;;;;;;6.57;5.27;;;3.60;99.90;;;;;;5020684;28;20213;-71
2022/12/04 06:27:45;;;;;;;8.00;5.63;;;3.70;99.90;;;;;;5017489;28;20191;-71
2022/12/04 06:30:13;;;;;;;8.83;6.10;;;3.50;99.90;;;;;;5009517;28;20222;-72
2022/12/04 06:32:41;;;;;;;8.10;5.30;;;3.60;99.90;;;;;;5019122;28;20186;-73
2022/12/04 06:35:07;;;;;;;7.97;5.20;;;3.60;99.90;;;;;;5020471;28;20185;-72
2022/12/04 06:37:33;;;;;;;6.63;5.40;;;3.60;99.90;;;;;;5034451;28;20208;-72
2022/12/04 06:40:01;;;;;;;8.63;6.03;;;3.60;99.90;;;;;;5020207;28;20186;-73
2022/12/04 06:42:27;;;;;;;9.03;5.40;;;3.50;99.90;;;;;;5016741;28;20256;-73
2022/12/04 06:44:54;;;;;;;7.70;5.43;;;3.50;99.90;;;;;;5000642;28;20195;-72
2022/12/04 06:47:20;;;;;;;7.70;5.27;;;3.50;99.90;;;;;;5007270;28;20219;-72
2022/12/04 06:49:49;;;;;;;6.03;4.80;;;3.60;99.90;;;;;;5019694;28;20185;-73
2022/12/04 06:52:19;;;;;;;8.07;5.17;;;3.50;99.90;;;;;;5011445;28;20193;-73
2022/12/04 06:54:47;;;;;;;8.70;6.33;;;3.50;99.90;;;;;;5019743;28;20249;-72
2022/12/04 06:57:13;;;;;;;7.77;5.20;;;3.50;99.90;;;;;;5020966;28;20178;-72
2022/12/04 06:59:38;;;;;;;8.13;5.43;;;3.50;99.90;;;;;;5032395;28;20259;-72
2022/12/04 07:02:04;;;;;;;7.93;5.70;;;3.50;99.90;;;;;;5025406;28;20193;-72
2022/12/04 07:04:30;;;;;;;8.43;5.80;;;3.40;99.90;;;;;;5030731;28;20190;-73
2022/12/04 07:06:58;;;;;;;8.03;5.47;;;3.40;99.90;;;;;;5027091;28;20190;-72
2022/12/04 07:09:26;;;;;;;7.57;5.03;;;3.40;99.90;;;;;;5036256;28;20174;-72
2022/12/04 07:11:54;;;;;;;6.57;4.83;;;3.30;99.90;;;;;;5015846;28;20210;-72
2022/12/04 07:14:19;;;;;;;6.70;4.80;;;3.40;99.90;;;;;;5011026;28;20189;-71
2022/12/04 07:16:47;;;;;;;7.37;4.87;;;3.40;99.90;;;;;;5027856;28;20261;-72
2022/12/04 07:19:13;;;;;;;8.53;5.67;;;3.40;99.90;;;;;;5019356;28;20213;-72
2022/12/04 07:21:45;;;;;;;9.97;6.53;;;3.40;99.90;;;;;;5040953;28;20178;-72
2022/12/04 07:24:14;;;;;;;7.27;5.33;;;3.40;99.90;;;;;;5038290;28;20179;-71
2022/12/04 07:26:42;;;;;;;9.00;5.67;;;3.40;99.90;;;;;;5039073;28;20264;-72
2022/12/04 07:29:09;;;;;;;8.30;5.33;;;3.40;99.90;;;;;;5023035;28;20182;-72
2022/12/04 07:31:35;;;;;;;7.67;4.93;;;3.40;99.90;;;;;;5019249;28;20210;-72
2022/12/04 07:34:00;;;;;;;7.70;4.90;;;3.40;99.90;;;;;;5016221;28;20240;-72
2022/12/04 07:36:31;;;;;;;6.33;4.83;;;3.40;99.90;;;;;;5031640;28;20469;-72
2022/12/04 07:38:56;;;;;;;6.80;4.87;;;3.40;99.90;;;;;;5025916;28;20179;-72
2022/12/04 07:41:27;;;;;;;8.83;5.70;;;3.40;99.90;;;;;;5012818;28;20212;-72
2022/12/04 07:43:55;;;;;;;6.47;4.57;;;3.40;99.90;;;;;;5031167;28;20177;-73
2022/12/04 07:46:26;;;;;;;7.40;4.90;;;3.40;99.90;;;;;;5018013;28;20197;-71
2022/12/04 07:48:54;;;;;;;9.77;6.60;;;3.40;99.90;;;;;;5018092;28;20193;-72
2022/12/04 07:51:22;;;;;;;8.20;5.50;;;3.40;99.90;;;;;;5017518;28;20198;-72
2022/12/04 07:53:49;;;;;;;7.93;5.53;;;3.50;99.90;;;;;;5012684;28;20182;-72
2022/12/04 07:56:15;;;;;;;8.97;5.90;;;3.60;99.90;;;;;;5035355;28;20205;-72
2022/12/04 07:58:42;;;;;;;8.77;6.37;;;3.50;99.90;;;;;;5018454;28;20228;-72
2022/12/04 08:01:22;;;;;;;8.20;5.87;;;3.50;99.90;;;;;;5026033;28;20187;-72
2022/12/04 08:03:52;;;;;;;8.63;5.83;;;3.50;99.90;;;;;;5026643;28;20185;-72
2022/12/04 08:06:20;;;;;;;9.37;6.40;;;3.60;99.90;;;;;;5011161;28;20178;-71
2022/12/04 08:08:47;;;;;;;8.17;5.70;;;3.50;99.90;;;;;;5023031;28;20489;-71
2022/12/04 08:11:16;;;;;;;8.80;6.00;;;3.50;99.90;;;;;;5014410;28;20293;-71
2022/12/04 08:13:44;;;;;;;8.17;6.03;;;3.50;99.90;;;;;;5018369;28;20281;-71
2022/12/04 08:16:11;;;;;;;9.03;6.60;;;3.50;99.90;;;;;;5011561;28;20257;-72
2022/12/04 08:18:47;;;;;;;9.03;6.10;;;3.40;99.90;;;;;;5030859;28;20221;-71
2022/12/04 08:21:19;;;;;;;8.70;5.97;;;3.50;99.90;;;;;;5023162;28;20189;-72
2022/12/04 08:23:45;;;;;;;8.10;5.47;;;3.50;99.90;;;;;;5013996;28;20305;-72
2022/12/04 08:26:13;;;;;;;7.97;5.57;;;3.50;99.90;;;;;;5010359;28;20185;-72
2022/12/04 08:28:40;;;;;;;9.93;6.53;;;3.50;99.90;;;;;;5026200;28;20177;-72
2022/12/04 08:31:20;;;;;;;10.33;6.70;;;3.60;99.90;;;;;;5002608;28;20210;-72
2022/12/04 08:33:48;;;;;;;7.30;5.77;;;3.50;99.90;;;;;;5018276;28;20170;-72
2022/12/04 08:36:18;;;;;;;8.10;5.73;;;3.50;99.90;;;;;;5018396;28;20189;-72
2022/12/04 08:38:47;;;;;;;10.33;7.07;;;3.50;99.90;;;;;;5025085;28;20175;-72
2022/12/04 08:41:14;;;;;;;9.57;6.57;;;3.50;99.90;;;;;;5018152;28;20213;-71
2022/12/04 08:43:40;;;;;;;9.03;6.70;;;3.50;99.90;;;;;;5014575;28;20198;-71
2022/12/04 08:46:08;;;;;;;10.00;6.67;;;3.40;99.90;;;;;;5018500;28;20202;-72
2022/12/04 08:48:37;;;;;;;9.30;6.50;;;3.40;99.90;;;;;;5018208;28;20182;-72
2022/12/04 08:51:06;;;;;;;8.90;6.60;;;3.40;99.90;;;;;;5018667;28;20240;-71
2022/12/04 08:53:35;;;;;;;9.17;6.50;;;3.40;99.90;;;;;;5033651;28;20189;-71
2022/12/04 08:56:04;;;;;;;8.53;6.03;;;3.50;99.90;;;;;;5015792;28;20199;-71
2022/12/04 08:58:30;;;;;;;9.17;6.57;;;3.40;99.90;;;;;;5016928;28;20197;-73
2022/12/04 09:01:06;;;;;;;10.00;6.50;;;3.40;99.90;;;;;;5018821;28;20186;-74
2022/12/04 09:03:32;;;;;;;10.07;7.00;;;3.40;99.90;;;;;;5033268;28;20181;-74
2022/12/04 09:05:59;;;;;;;8.87;6.47;;;3.50;99.90;;;;;;5033391;28;20297;-74
2022/12/04 09:08:24;;;;;;;9.53;6.83;;;3.40;99.90;;;;;;5017259;28;20177;-74
2022/12/04 09:10:53;;;;;;;9.17;6.13;;;3.40;99.90;;;;;;5037357;28;20206;-75
2022/12/04 09:13:18;;;;;;;8.90;6.43;;;3.30;99.90;;;;;;5033586;28;20274;-75
2022/12/04 09:15:49;;;;;;;8.17;5.70;;;3.30;99.90;;;;;;5017559;28;20206;-75
2022/12/04 09:18:14;;;;;;;8.73;5.90;;;3.40;99.90;;;;;;5028823;28;20243;-75
2022/12/04 09:20:40;;;;;;;7.63;5.80;;;3.40;99.90;;;;;;5026687;28;20170;-74
2022/12/04 09:23:08;;;;;;;8.40;6.27;;;3.40;99.90;;;;;;5043511;28;20221;-73
2022/12/04 09:25:37;;;;;;;8.37;6.17;;;3.40;99.90;;;;;;5036541;28;20219;-74
2022/12/04 09:28:05;;;;;;;10.50;6.40;;;3.60;99.90;;;;;;5017353;28;20189;-76
2022/12/04 09:30:33;;;;;;;9.17;6.10;;;3.40;99.90;;;;;;5017161;28;20210;-74
2022/12/04 09:32:58;;;;;;;8.27;6.13;;;3.40;99.90;;;;;;5017867;28;20178;-75
2022/12/04 09:35:24;;;;;;;9.00;6.27;;;3.50;99.90;;;;;;5023254;28;20204;-75
2022/12/04 09:37:52;;;;;;;9.07;5.97;;;3.70;99.90;;;;;;5031582;28;20178;-75
2022/12/04 09:40:48;;;;;;;9.60;5.93;;;3.40;99.90;;;;;;5021321;28;20414;-76
2022/12/04 09:43:31;;;;;;;7.97;6.13;;;3.50;99.90;;;;;;5010101;28;20186;-77
2022/12/04 09:46:03;;;;;;;7.13;5.23;;;3.50;99.90;;;;;;5020689;28;20206;-76
2022/12/04 09:48:36;;;;;;;8.67;5.93;;;3.50;99.90;;;;;;5029080;28;20192;-76
2022/12/04 09:51:04;;;;;;;8.50;5.57;;;3.50;99.90;;;;;;5020431;28;20213;-75
2022/12/04 09:53:46;;;;;;;8.13;6.00;;;3.60;99.90;;;;;;5009435;28;20179;-76
2022/12/04 09:56:20;;;;;;;8.47;6.13;;;3.60;99.90;;;;;;5003934;28;20209;-75
2022/12/04 09:58:54;;;;;;;8.97;6.13;;;3.80;99.90;;;;;;5005521;28;20217;-74
2022/12/04 10:01:22;;;;;;;7.37;5.30;;;3.70;99.90;;;;;;5014570;28;20223;-74
2022/12/04 10:03:48;;;;;;;7.47;5.63;;;3.70;99.90;;;;;;5016693;28;20190;-76
2022/12/04 10:06:28;;;;;;;7.37;5.57;;;3.70;99.90;;;;;;5036375;28;20182;-75
2022/12/04 10:09:01;;;;;;;6.43;5.00;;;3.70;99.90;;;;;;5020438;28;20177;-76
2022/12/04 10:11:49;;;;;;;7.83;5.63;;;3.80;99.90;;;;;;5030832;28;20195;-77
2022/12/04 10:14:25;;;;;;;7.70;5.50;;;3.80;99.90;;;;;;5015147;28;20174;-78
2022/12/04 10:17:29;;;;;;;8.53;5.90;;;3.80;99.90;;;;;;5020512;28;20726;-78
2022/12/04 10:20:04;;;;;;;8.17;5.70;;;3.80;99.90;;;;;;5015472;28;20182;-81
2022/12/04 10:22:45;;;;;;;7.67;5.40;;;3.90;99.90;;;;;;5019453;28;20237;-81
2022/12/04 10:25:16;;;;;;;8.37;5.50;;;3.90;99.90;;;;;;5005213;28;20418;-80
2022/12/04 10:28:15;;;;;;;7.07;4.73;;;3.90;99.90;;;;;;5019784;28;20188;-80
2022/12/04 10:30:42;;;;;;;6.97;5.00;;;3.90;99.90;;;;;;5019382;28;20232;-81
2022/12/04 10:33:41;;;;;;;7.30;5.33;;;4.00;99.90;;;;;;5022206;28;20178;-81
2022/12/04 10:36:18;;;;;;;9.00;6.33;;;4.00;99.90;;;;;;5028993;28;20479;-82
2022/12/04 10:38:46;;;;;;;7.13;5.30;;;4.20;99.90;;;;;;5023062;28;20177;-81
2022/12/04 10:41:24;;;;;;;8.03;5.80;;;4.20;99.90;;;;;;5015357;28;20237;-77
2022/12/04 10:43:50;;;;;;;7.87;5.03;;;4.20;99.90;;;;;;5017692;28;20192;-75
2022/12/04 10:46:22;;;;;;;8.03;5.17;;;4.30;99.90;;;;;;5017624;28;20198;-80
2022/12/04 10:48:53;;;;;;;7.73;5.70;;;4.30;99.90;;;;;;5012639;28;20493;-78
2022/12/04 10:51:20;;;;;;;6.37;5.13;;;4.30;99.90;;;;;;5036855;28;20206;-79
2022/12/04 10:53:49;;;;;;;7.17;5.60;;;4.40;99.90;;;;;;5019029;28;20181;-80
2022/12/04 10:56:16;;;;;;;7.27;5.33;;;4.40;99.90;;;;;;5018499;28;20186;-82
2022/12/04 10:58:53;;;;;;;7.57;5.30;;;4.40;99.90;;;;;;5017379;28;20178;-78
2022/12/04 11:01:21;;;;;;;7.40;5.50;;;4.50;99.90;;;;;;5015586;28;20240;-80
2022/12/04 11:04:19;;;;;;;7.20;4.93;;;4.50;99.90;;;;;;5004483;28;20181;-80
2022/12/04 11:06:48;;;;;;;7.97;5.17;;;4.50;99.90;;;;;;5011414;28;20234;-76
2022/12/04 11:09:24;;;;;;;6.27;4.77;;;4.50;99.90;;;;;;5022441;28;20205;-79
2022/12/04 11:11:50;;;;;;;6.40;5.10;;;4.60;99.90;;;;;;5011828;28;20202;-79
2022/12/04 11:14:21;;;;;;;7.53;5.37;;;4.60;99.90;;;;;;5003229;28;20175;-78
2022/12/04 11:16:58;;;;;;;8.47;5.40;;;4.60;99.90;;;;;;5021794;28;20177;-80
2022/12/04 11:19:27;;;;;;;6.73;4.67;;;4.60;99.90;;;;;;5021729;28;20185;-79
2022/12/04 11:21:55;;;;;;;7.90;5.67;;;4.60;99.90;;;;;;5018469;28;20190;-79
2022/12/04 11:24:23;;;;;;;6.37;4.93;;;4.60;99.90;;;;;;5018256;28;20186;-80
2022/12/04 11:26:52;;;;;;;9.50;6.30;;;4.60;99.90;;;;;;5030235;28;20179;-80
2022/12/04 11:29:27;;;;;;;8.33;5.50;;;4.70;99.90;;;;;;5033279;28;20181;-83
2022/12/04 11:31:56;;;;;;;6.93;5.40;;;4.60;99.90;;;;;;5007569;28;20224;-79
2022/12/04 11:34:27;;;;;;;7.77;5.50;;;4.60;99.90;;;;;;5018079;28;20184;-78
2022/12/04 11:36:55;;;;;;;6.67;4.83;;;4.60;99.90;;;;;;5001842;28;20187;-80
2022/12/04 11:39:40;;;;;;;7.50;5.37;;;4.60;99.90;;;;;;5001387;28;20171;-79
2022/12/04 11:42:24;;;;;;;7.53;5.00;;;4.60;99.90;;;;;;5007521;28;20440;-78
2022/12/04 11:44:54;;;;;;;7.73;5.37;;;4.90;99.90;;;;;;5011750;28;20189;-79
2022/12/04 11:47:21;;;;;;;8.30;5.47;;;4.60;99.90;;;;;;5020174;28;20205;-78
2022/12/04 11:50:11;;;;;;;7.67;5.47;;;5.00;99.90;;;;;;5028904;28;20166;-78
2022/12/04 11:52:46;;;;;;;7.60;5.30;;;4.60;99.90;;;;;;5036698;28;20182;-78
2022/12/04 11:55:18;;;;;;;7.73;5.07;;;4.60;99.90;;;;;;5020799;28;20154;-79
2022/12/04 11:58:07;;;;;;;7.37;5.00;;;4.60;99.90;;;;;;5009138;28;20178;-78
2022/12/04 12:00:42;;;;;;;7.40;5.50;;;4.60;99.90;;;;;;5002496;28;20178;-78
2022/12/04 12:03:40;;;;;;;8.07;5.40;;;4.60;99.90;;;;;;5016296;28;20209;-78
2022/12/04 12:06:11;;;;;;;8.10;5.30;;;4.60;99.90;;;;;;5016988;28;20251;-79
2022/12/04 12:08:55;;;;;;;7.27;5.10;;;4.60;99.90;;;;;;5019559;28;20235;-79
2022/12/04 12:11:26;;;;;;;7.33;5.30;;;4.70;99.90;;;;;;5016311;28;20190;-78
2022/12/04 12:14:08;;;;;;;6.80;5.10;;;4.70;99.90;;;;;;5013428;28;20194;-80
2022/12/04 12:17:03;;;;;;;7.00;5.03;;;4.70;99.90;;;;;;5034666;28;20185;-79
2022/12/04 12:19:46;;;;;;;8.07;5.50;;;4.70;99.90;;;;;;5015749;28;20167;-78
2022/12/04 12:22:40;;;;;;;9.27;6.40;;;4.70;99.90;;;;;;5012342;28;20241;-78
2022/12/04 12:25:14;;;;;;;8.50;5.40;;;4.70;99.90;;;;;;5010931;28;20189;-78
2022/12/04 12:28:12;;;;;;;9.80;6.37;;;4.70;99.90;;;;;;5018294;28;20185;-79
2022/12/04 12:31:03;;;;;;;8.53;5.80;;;4.70;99.90;;;;;;5009238;28;20212;-79
2022/12/04 12:33:35;;;;;;;10.73;6.00;;;4.70;99.90;;;;;;5017726;28;20217;-77
2022/12/04 12:36:11;;;;;;;7.87;5.57;;;4.80;99.90;;;;;;5017836;28;20193;-79
2022/12/04 12:39:07;;;;;;;7.20;4.87;;;4.80;99.90;;;;;;5018347;28;20177;-79
2022/12/04 12:41:42;;;;;;;7.73;4.97;;;4.80;99.90;;;;;;5018390;28;20257;-79
2022/12/04 12:44:34;;;;;;;8.90;5.67;;;4.90;99.90;;;;;;5034576;28;20192;-79
2022/12/04 12:47:09;;;;;;;7.83;5.30;;;4.80;99.90;;;;;;5017378;28;20205;-78
2022/12/04 12:49:59;;;;;;;8.20;5.30;;;4.80;99.90;;;;;;5017233;28;20174;-78
2022/12/04 12:52:59;;;;;;;7.67;5.10;;;4.80;99.90;;;;;;5009462;28;20260;-79
2022/12/04 12:55:28;;;;;;;7.43;4.80;;;4.80;99.90;;;;;;4969232;28;20183;-80
2022/12/04 12:58:04;;;;;;;7.33;5.27;;;4.70;99.90;;;;;;5035063;28;20185;-79
2022/12/04 13:00:35;;;;;;;8.63;5.60;;;4.90;99.90;;;;;;5017324;28;20192;-79
2022/12/04 13:03:06;;;;;;;7.40;5.33;;;4.70;99.90;;;;;;5034544;28;20252;-79
2022/12/04 13:05:44;;;;;;;9.63;5.83;;;4.70;99.90;;;;;;5032168;28;20178;-80
2022/12/04 13:08:23;;;;;;;9.37;5.80;;;4.70;99.90;;;;;;5025064;28;20197;-80
2022/12/04 13:11:12;;;;;;;7.47;5.17;;;4.70;99.90;;;;;;5021680;28;20232;-79
2022/12/04 13:13:59;;;;;;;9.80;5.53;;;4.70;99.90;;;;;;5027856;28;20182;-78
2022/12/04 13:16:27;;;;;;;7.83;5.23;;;4.70;99.90;;;;;;5013881;28;20187;-79
2022/12/04 13:19:32;;;;;;;7.90;5.17;;;4.70;99.90;;;;;;5027445;28;20185;-79
2022/12/04 13:22:29;;;;;;;8.63;5.17;;;4.70;99.90;;;;;;5017454;28;20200;-80
2022/12/04 13:25:33;;;;;;;8.80;5.27;;;4.70;99.90;;;;;;5016130;28;20205;-78
2022/12/04 13:28:05;;;;;;;7.50;5.13;;;4.70;99.90;;;;;;5036322;28;20186;-80
2022/12/04 13:30:50;;;;;;;8.87;5.50;;;4.70;99.90;;;;;;5021037;28;20315;-77
2022/12/04 13:33:41;;;;;;;9.50;5.23;;;4.70;99.90;;;;;;5021969;28;20271;-80
2022/12/04 13:36:27;;;;;;;8.53;5.17;;;4.70;99.90;;;;;;5021594;28;20193;-79
2022/12/04 13:38:53;;;;;;;8.30;5.70;;;4.80;99.90;;;;;;5021075;28;20224;-78
2022/12/04 13:41:26;;;;;;;9.20;6.10;;;4.70;99.90;;;;;;5020186;28;20208;-77